Impacts METAR Board
IDs:

KMSP - Minneapolis-St Paul, MN, US

Updated at: 2200 UTC 25 May 2018
Potential Impact None Slight Moderate High
Time 25/10Z 25/11Z 25/12Z 25/13Z 25/14Z 25/15Z 25/16Z 25/17Z 25/18Z 25/19Z 25/20Z 25/21Z 25/22Z
Temp67 67 67 69 73 76 77 80 83 86 88 89 89
Dewpt65 65 65 65 66 67 68 68 69 65 62 63 60
Altim29.83 29.81 29.81 29.81 29.79 29.78 29.79 29.78 29.76 29.75 29.71 29.70 29.67
VIS10 10 10 10 10 10 10 10 10 10 10 10 10
CIG55 100 230 250 -- 250 250 -- -- -- -- 250 250
CoverBKNOVCOVCOVCSCTBKNBKNSCTCLRFEWFEWBKNBKN
FltCatVFRVFRVFRVFRVFRVFRVFRVFRVFRVFRVFRVFRVFR
WX--------------------------
WDir150130150160180180180210210230260250260
WSpd10 5 5 6 8 11 8 8 7 7 9 9 10
WGst-- -- -- -- -- -- -- -- -- -- -- -- 19
Raw hourly METARs
KMSP 251001Z 15010KT 10SM BKN055 19/18 A2983 RMK AO2 LTG DSNT E-S TS MOV NE T01940183
KMSP 251053Z 13005KT 10SM BKN100 OVC230 19/18 A2981 RMK AO2 LTG DSNT E-S SLP089 TS MOV NE T01940183
KMSP 251153Z 15005KT 10SM FEW080 OVC230 19/18 A2981 RMK AO2 LTG DSNT E-S SLP090 TS MOV NE 60016 70077 T01940183 10222 20189 55019
KMSP 251253Z 16006KT 10SM SCT085 OVC250 21/18 A2981 RMK AO2 SLP091 T02060183
KMSP 251353Z 18008KT 10SM SCT250 23/19 A2979 RMK AO2 SLP084 T02280189
KMSP 251453Z 18011KT 10SM BKN250 24/19 A2978 RMK AO2 SLP082 T02440194 58010
KMSP 251553Z 18008KT 10SM FEW080 BKN250 25/20 A2979 RMK AO2 SLP083 T02500200
KMSP 251653Z 21008KT 10SM FEW080 SCT250 27/20 A2978 RMK AO2 SLP079 T02670200
KMSP 251753Z 21007KT 180V240 10SM CLR 28/21 A2976 RMK AO2 SLP072 T02830206 10283 20194 58007
KMSP 251853Z 23007KT 10SM FEW060 30/18 A2975 RMK AO2 SLP067 TCU DSNT W-N T03000183
KMSP 251953Z 26009KT 10SM FEW060 31/17 A2971 RMK AO2 LTG DSNT N SLP054 CB DSNT N AND E-S AND SW MOV E T03110167
KMSP 252053Z 25009KT 10SM SCT065 BKN250 32/17 A2970 RMK AO2 SLP049 CB DSNT E-NW MOV E T03170172 58022
KMSP 252153Z 26010G19KT 10SM SCT065 BKN250 32/16 A2967 RMK AO2 LTG DSNT W-N SLP042 CB DSNT W-NW MOV E T03170156



Page loaded:  22:14 UTC  |   03:14 PM Pacific  |   04:14 PM Mountain  |   05:14 PM Central  |   06:14 PM Eastern

 

ADVISORIES

FORECASTS

FORECASTS

OBSERVATIONS

USER TOOLS

ABOUT US